Time;durP1;ratioP1;P1;durP2;ratioP2;P2;SDS_P1;SDS_P2;PMS_P1;PMS_P2;Temp;Humidity;BMP_temperature;BMP_pressure;BME280_temperature;BME280_humidity;BME280_pressure;Samples;Min_cycle;Max_cycle;Signal;HPM_P1;HPM_P2
2022/04/21 00:00:40;;;;;;;6.60;4.50;;;7.10;99.90;;;;;;5054979;28;20269;-82
2022/04/21 00:03:06;;;;;;;7.40;5.10;;;7.00;99.90;;;;;;5072677;28;20170;-82
2022/04/21 00:05:32;;;;;;;7.13;4.90;;;7.00;99.90;;;;;;5072236;28;20467;-84
2022/04/21 00:07:58;;;;;;;8.27;4.97;;;7.00;99.90;;;;;;5054553;28;20564;-84
2022/04/21 00:10:25;;;;;;;10.67;5.70;;;6.90;99.90;;;;;;5054476;28;20464;-85
2022/04/21 00:12:51;;;;;;;6.87;5.20;;;6.90;99.90;;;;;;5072440;28;20430;-84
2022/04/21 00:15:18;;;;;;;5.97;3.97;;;6.90;99.90;;;;;;5072400;28;20424;-84
2022/04/21 00:17:44;;;;;;;6.53;4.47;;;6.90;99.90;;;;;;5072560;28;20502;-84
2022/04/21 00:20:11;;;;;;;7.33;5.10;;;6.80;99.90;;;;;;5072423;28;20414;-84
2022/04/21 00:25:23;;;;;;;7.80;5.13;;;6.80;99.90;;;;;;5034836;28;20414;-84
2022/04/21 00:27:48;;;;;;;6.43;4.20;;;6.90;99.90;;;;;;5075893;28;20463;-84
2022/04/21 00:30:16;;;;;;;6.97;5.00;;;6.90;99.90;;;;;;5075961;28;20241;-84
2022/04/21 00:32:42;;;;;;;6.93;5.20;;;6.90;99.90;;;;;;5058143;28;20177;-84
2022/04/21 00:35:11;;;;;;;8.13;5.30;;;6.90;99.90;;;;;;5075929;28;20431;-85
2022/04/21 00:37:56;;;;;;;7.40;4.67;;;6.80;99.90;;;;;;5075584;28;20417;-83
2022/04/21 00:40:26;;;;;;;9.03;4.47;;;6.80;99.90;;;;;;5075869;28;20423;-84
2022/04/21 00:42:52;;;;;;;7.13;4.60;;;6.70;99.90;;;;;;5075908;28;20418;-84
2022/04/21 00:45:17;;;;;;;6.97;5.03;;;6.70;99.90;;;;;;5075826;28;20964;-84
2022/04/21 00:47:45;;;;;;;6.93;5.07;;;6.70;99.90;;;;;;5075872;28;20412;-84
2022/04/21 00:50:17;;;;;;;7.97;4.90;;;6.70;99.90;;;;;;5075662;28;20215;-84
2022/04/21 00:52:44;;;;;;;7.37;5.20;;;6.70;99.90;;;;;;5057653;28;20421;-84
2022/04/21 00:55:10;;;;;;;7.60;4.30;;;6.60;99.90;;;;;;5075604;28;20427;-83
2022/04/21 00:57:38;;;;;;;9.90;5.90;;;6.60;99.90;;;;;;5057810;28;20419;-84
2022/04/21 01:00:05;;;;;;;9.50;5.50;;;6.50;99.90;;;;;;5075594;28;20416;-84
2022/04/21 01:02:50;;;;;;;7.00;4.90;;;6.50;99.90;;;;;;5057537;28;20417;-83
2022/04/21 01:05:32;;;;;;;7.90;4.03;;;6.40;99.90;;;;;;5075163;28;20877;-84
2022/04/21 01:08:06;;;;;;;9.13;5.67;;;6.40;99.90;;;;;;5057582;28;20425;-84
2022/04/21 01:10:36;;;;;;;6.77;4.60;;;6.40;99.90;;;;;;5075351;28;20574;-85
2022/04/21 01:13:06;;;;;;;5.93;4.17;;;6.40;99.90;;;;;;5057400;28;20425;-84
2022/04/21 01:15:32;;;;;;;8.17;4.63;;;6.40;99.90;;;;;;5075335;28;20415;-84
2022/04/21 01:17:58;;;;;;;7.60;5.57;;;6.30;99.90;;;;;;5075212;28;20413;-84
2022/04/21 01:20:25;;;;;;;6.80;4.80;;;6.30;99.90;;;;;;5074822;28;20438;-84
2022/04/21 01:22:52;;;;;;;9.40;5.67;;;6.30;99.90;;;;;;5075244;28;20171;-83
2022/04/21 01:25:19;;;;;;;6.30;4.67;;;6.30;99.90;;;;;;5075148;28;20443;-83
2022/04/21 01:27:46;;;;;;;6.87;4.90;;;6.20;99.90;;;;;;5074721;28;20963;-83
2022/04/21 01:30:12;;;;;;;7.37;5.50;;;6.20;99.90;;;;;;5074811;28;20463;-83
2022/04/21 01:32:42;;;;;;;7.00;4.87;;;6.00;99.90;;;;;;5074908;28;20431;-83
2022/04/21 01:35:08;;;;;;;6.90;5.77;;;6.00;99.90;;;;;;5074490;28;20413;-83
2022/04/21 01:43:04;;;;;;;7.33;5.57;;;5.80;99.90;;;;;;5074770;28;20427;-83
2022/04/21 01:45:30;;;;;;;9.00;4.30;;;5.80;99.90;;;;;;5074629;28;20412;-83
2022/04/21 01:47:56;;;;;;;9.37;5.33;;;5.80;99.90;;;;;;5056729;28;20688;-83
2022/04/21 01:50:23;;;;;;;8.57;6.10;;;5.70;99.90;;;;;;5074282;28;21068;-83
2022/04/21 01:52:48;;;;;;;8.57;5.03;;;5.70;99.90;;;;;;5074516;28;20504;-83
2022/04/21 01:55:13;;;;;;;8.40;4.10;;;5.70;99.90;;;;;;5074482;28;20505;-83
2022/04/21 01:57:39;;;;;;;11.10;4.90;;;5.70;99.90;;;;;;5074333;28;20169;-83
2022/04/21 02:00:05;;;;;;;6.87;5.60;;;5.70;99.90;;;;;;5074393;28;20208;-82
2022/04/21 02:02:32;;;;;;;6.90;6.00;;;5.80;99.90;;;;;;5056317;28;20638;-83
2022/04/21 02:04:59;;;;;;;8.60;5.20;;;5.80;99.90;;;;;;5074295;28;20456;-83
2022/04/21 02:07:25;;;;;;;8.50;6.07;;;5.80;99.90;;;;;;5056242;28;20420;-83
2022/04/21 02:09:51;;;;;;;9.73;6.03;;;5.70;99.90;;;;;;5074150;28;20502;-82
2022/04/21 02:12:17;;;;;;;6.87;4.50;;;5.70;99.90;;;;;;5074108;28;20170;-83
2022/04/21 02:14:42;;;;;;;9.10;5.50;;;5.70;99.90;;;;;;5073978;28;20411;-83
2022/04/21 02:17:08;;;;;;;9.83;5.33;;;5.70;99.90;;;;;;5073981;28;20180;-84
2022/04/21 02:19:34;;;;;;;10.13;5.63;;;5.70;99.90;;;;;;5073870;28;20202;-83
2022/04/21 02:21:59;;;;;;;9.20;5.50;;;5.80;99.90;;;;;;5055820;28;20184;-85
2022/04/21 02:24:25;;;;;;;7.57;5.40;;;5.80;99.90;;;;;;5073867;28;20218;-84
2022/04/21 02:26:51;;;;;;;6.77;5.03;;;5.80;99.90;;;;;;5073696;28;20221;-84
2022/04/21 02:29:16;;;;;;;6.20;4.83;;;5.80;99.90;;;;;;5055935;28;20764;-83
2022/04/21 02:31:41;;;;;;;7.67;5.77;;;5.80;99.90;;;;;;5073525;28;20250;-83
2022/04/21 02:34:07;;;;;;;6.93;4.73;;;5.80;99.90;;;;;;5073590;28;20173;-82
2022/04/21 02:36:33;;;;;;;6.87;5.27;;;5.80;99.90;;;;;;5080620;28;20176;-83
2022/04/21 02:38:58;;;;;;;8.83;4.23;;;5.70;99.90;;;;;;5073200;28;20170;-83
2022/04/21 02:41:23;;;;;;;7.13;4.67;;;5.70;99.90;;;;;;5072585;28;20206;-83
2022/04/21 02:43:49;;;;;;;7.30;4.57;;;5.70;99.90;;;;;;5073324;28;20556;-83
2022/04/21 02:46:14;;;;;;;6.37;4.93;;;5.70;99.90;;;;;;5073234;28;20208;-84
2022/04/21 02:48:40;;;;;;;10.00;5.13;;;5.70;99.90;;;;;;5073059;28;20178;-83
2022/04/21 02:51:08;;;;;;;8.20;4.40;;;5.70;99.90;;;;;;5054937;28;20669;-83
2022/04/21 02:59:02;;;;;;;7.23;4.70;;;5.60;99.90;;;;;;5073576;28;20816;-83
2022/04/21 03:01:27;;;;;;;7.53;4.73;;;5.50;99.90;;;;;;5073269;28;20467;-84
2022/04/21 03:03:54;;;;;;;9.30;5.13;;;5.50;99.90;;;;;;5073234;28;20608;-84
2022/04/21 03:06:20;;;;;;;7.87;4.50;;;5.50;99.90;;;;;;5072892;28;20172;-84
2022/04/21 03:08:46;;;;;;;4.33;3.57;;;5.50;99.90;;;;;;5073031;28;20419;-84
2022/04/21 03:11:11;;;;;;;6.90;4.53;;;5.40;99.90;;;;;;5073375;28;20182;-84
2022/04/21 03:13:36;;;;;;;8.63;5.57;;;5.30;99.90;;;;;;5073043;28;20260;-84
2022/04/21 03:16:02;;;;;;;8.33;4.57;;;5.30;99.90;;;;;;5072970;28;20527;-83
2022/04/21 03:18:28;;;;;;;8.60;4.10;;;5.30;99.90;;;;;;5073100;28;20181;-84
2022/04/21 03:26:22;;;;;;;8.47;4.70;;;5.20;99.90;;;;;;5072831;28;20445;-85
2022/04/21 03:28:47;;;;;;;6.17;4.07;;;5.20;99.90;;;;;;5073013;28;20447;-85
2022/04/21 03:31:13;;;;;;;6.70;5.27;;;5.20;99.90;;;;;;5072826;28;20188;-84
2022/04/21 03:33:38;;;;;;;6.07;3.90;;;5.20;99.90;;;;;;5072858;28;20621;-83
2022/04/21 03:36:04;;;;;;;7.93;4.80;;;5.20;99.90;;;;;;5072437;28;20201;-84
2022/04/21 03:38:30;;;;;;;10.30;5.53;;;5.20;99.90;;;;;;5072773;28;20464;-83
2022/04/21 03:40:56;;;;;;;7.70;4.67;;;5.10;99.90;;;;;;5072803;28;20235;-83
2022/04/21 03:43:22;;;;;;;8.50;5.20;;;5.00;99.90;;;;;;5072765;28;20247;-83
2022/04/21 03:45:47;;;;;;;8.23;5.10;;;5.00;99.90;;;;;;5072745;28;20824;-83
2022/04/21 03:48:13;;;;;;;10.47;4.33;;;5.00;99.90;;;;;;5072484;28;20541;-83
2022/04/21 03:50:39;;;;;;;7.17;4.97;;;5.00;99.90;;;;;;5072097;28;20181;-83
2022/04/21 03:53:06;;;;;;;9.47;4.33;;;5.00;99.90;;;;;;5072736;28;20215;-83
2022/04/21 03:55:31;;;;;;;6.90;5.00;;;4.90;99.90;;;;;;5054417;28;20851;-83
2022/04/21 03:57:57;;;;;;;8.93;5.23;;;4.90;99.90;;;;;;5073848;28;20410;-83
2022/04/21 04:00:23;;;;;;;8.70;4.70;;;4.90;99.90;;;;;;5076629;28;20237;-83
2022/04/21 04:02:48;;;;;;;7.70;4.40;;;4.90;99.90;;;;;;5076581;28;20260;-83
2022/04/21 04:05:14;;;;;;;6.13;3.87;;;4.80;99.90;;;;;;5058371;28;20180;-84
2022/04/21 04:13:07;;;;;;;8.53;4.73;;;4.90;99.90;;;;;;5076512;28;20498;-85
2022/04/21 04:15:33;;;;;;;7.00;4.57;;;5.00;99.90;;;;;;5076393;28;20489;-85
2022/04/21 04:18:05;;;;;;;8.57;4.50;;;4.90;99.90;;;;;;5057812;28;20542;-85
2022/04/21 04:20:30;;;;;;;8.20;4.53;;;5.00;99.90;;;;;;5075761;28;20205;-84
2022/04/21 04:22:56;;;;;;;8.10;4.70;;;5.00;99.90;;;;;;5076278;28;20419;-86
2022/04/21 04:25:21;;;;;;;6.13;3.90;;;5.00;99.90;;;;;;5076252;28;20226;-85
2022/04/21 04:27:47;;;;;;;6.80;4.60;;;5.00;99.90;;;;;;5075983;28;20221;-83
2022/04/21 04:30:13;;;;;;;10.10;6.10;;;5.00;99.90;;;;;;5076152;28;20165;-84
2022/04/21 04:32:38;;;;;;;6.33;4.50;;;5.10;99.90;;;;;;5076113;28;20171;-84
2022/04/21 04:35:04;;;;;;;10.40;5.10;;;5.10;99.90;;;;;;5075715;28;20445;-84
2022/04/21 04:37:30;;;;;;;7.30;3.93;;;5.20;99.90;;;;;;5075344;28;20215;-84
2022/04/21 04:39:55;;;;;;;8.60;4.90;;;5.20;99.90;;;;;;5057945;28;20542;-84
2022/04/21 04:42:22;;;;;;;8.70;4.30;;;5.30;99.90;;;;;;5075849;28;20165;-83
2022/04/21 04:47:40;;;;;;;9.03;4.97;;;5.40;99.90;;;;;;5075851;28;20499;-84
2022/04/21 04:50:07;;;;;;;6.17;4.93;;;5.50;99.90;;;;;;5057503;28;20420;-84
2022/04/21 04:52:32;;;;;;;6.93;4.00;;;5.60;99.90;;;;;;5075664;28;20403;-84
2022/04/21 04:54:58;;;;;;;7.60;5.10;;;5.60;99.90;;;;;;5075606;28;20750;-83
2022/04/21 04:57:24;;;;;;;7.70;4.43;;;5.70;99.90;;;;;;5075536;28;20168;-83
2022/04/21 04:59:49;;;;;;;6.93;4.70;;;5.80;99.90;;;;;;5075500;28;20652;-82
2022/04/21 05:02:15;;;;;;;5.73;3.73;;;5.90;99.90;;;;;;5075374;28;20169;-83
2022/04/21 05:04:40;;;;;;;6.53;4.60;;;6.00;99.90;;;;;;5075088;28;20630;-82
2022/04/21 05:07:06;;;;;;;6.57;4.60;;;6.00;99.90;;;;;;5075307;28;20185;-83
2022/04/21 05:09:31;;;;;;;10.10;5.60;;;6.10;99.90;;;;;;5074949;28;20167;-82
2022/04/21 05:11:57;;;;;;;7.70;4.90;;;6.20;99.90;;;;;;5075379;28;20177;-84
2022/04/21 05:14:24;;;;;;;5.20;4.47;;;6.30;99.90;;;;;;5075284;28;20170;-84
2022/04/21 05:16:50;;;;;;;7.40;5.00;;;6.40;99.90;;;;;;5075381;28;20166;-84
2022/04/21 05:19:19;;;;;;;6.17;3.63;;;6.50;99.90;;;;;;5075113;28;20886;-84
2022/04/21 05:21:45;;;;;;;7.30;4.10;;;6.60;99.90;;;;;;5074875;28;20423;-84
2022/04/21 05:24:11;;;;;;;6.63;4.00;;;6.80;99.90;;;;;;5075093;28;20463;-84
2022/04/21 05:26:37;;;;;;;6.40;4.33;;;6.90;99.90;;;;;;5074845;28;20420;-84
2022/04/21 05:30:55;;;;;;;5.23;4.37;;;7.10;99.90;;;;;;5075099;28;20459;-83
2022/04/21 05:31:55;;;;;;;6.27;4.10;;;7.70;99.90;;;;;;5074950;28;20448;-84
2022/04/21 05:34:21;;;;;;;5.40;3.23;;;8.10;1.00;;;;;;5075020;28;20889;-84
2022/04/21 05:36:47;;;;;;;6.27;3.60;;;7.90;1.00;;;;;;5074537;28;20778;-83
2022/04/21 05:39:12;;;;;;;8.13;3.00;;;8.00;8.70;;;;;;5074880;28;20432;-83
2022/04/21 05:41:38;;;;;;;4.30;2.73;;;8.10;1.00;;;;;;5075037;28;20673;-83
2022/04/21 05:44:07;;;;;;;4.30;3.00;;;8.70;1.00;;;;;;5075055;28;20292;-83
2022/04/21 05:46:33;;;;;;;3.70;1.87;;;9.30;99.90;;;;;;5074338;28;20174;-84
2022/04/21 05:48:59;;;;;;;6.07;1.50;;;9.40;1.00;;;;;;5074436;28;20766;-86
2022/04/21 05:51:24;;;;;;;3.00;1.70;;;9.40;1.00;;;;;;5074243;28;20171;-85
2022/04/21 05:53:51;;;;;;;2.90;1.80;;;9.20;1.00;;;;;;5074451;28;20414;-85
2022/04/21 05:56:17;;;;;;;6.47;1.37;;;9.10;99.90;;;;;;5074417;28;20168;-85
2022/04/21 05:58:42;;;;;;;3.60;2.00;;;9.10;99.90;;;;;;5074355;28;20414;-85
2022/04/21 06:01:10;;;;;;;4.87;1.60;;;9.00;99.90;;;;;;5074337;28;20978;-84
2022/04/21 06:03:41;;;;;;;2.80;1.97;;;9.30;99.90;;;;;;5074355;28;20252;-85
2022/04/21 06:06:07;;;;;;;3.00;2.20;;;9.20;1.00;;;;;;5073985;28;20414;-84
2022/04/21 06:08:33;;;;;;;4.33;2.07;;;9.90;1.00;;;;;;5074225;28;20416;-85
2022/04/21 06:10:58;;;;;;;3.37;1.23;;;9.80;1.00;;;;;;5074108;28;20414;-84
2022/04/21 06:13:25;;;;;;;3.77;2.10;;;10.80;1.00;;;;;;5074061;28;20164;-85
2022/04/21 06:15:51;;;;;;;3.10;1.20;;;11.10;20.90;;;;;;5074095;28;20574;-85
2022/04/21 06:18:18;;;;;;;3.27;1.83;;;10.40;1.00;;;;;;5073997;28;20403;-86
2022/04/21 06:20:43;;;;;;;3.10;1.73;;;10.00;1.00;;;;;;5072828;28;20199;-85
2022/04/21 06:23:09;;;;;;;4.63;1.40;;;9.80;45.80;;;;;;5073957;28;20418;-84
2022/04/21 06:25:35;;;;;;;4.70;1.30;;;9.70;26.40;;;;;;5074031;28;20204;-86
2022/04/21 06:28:03;;;;;;;2.07;0.93;;;9.90;1.00;;;;;;5073590;28;20215;-85
2022/04/21 06:30:28;;;;;;;3.90;1.37;;;9.80;93.80;;;;;;5073908;28;20474;-85
2022/04/21 06:32:54;;;;;;;3.20;1.13;;;9.90;1.00;;;;;;5073755;28;20419;-85
2022/04/21 06:35:19;;;;;;;4.47;1.17;;;9.90;99.90;;;;;;5055479;28;20172;-85
2022/04/21 06:37:46;;;;;;;2.77;0.97;;;10.30;1.00;;;;;;5073654;28;20418;-84
2022/04/21 06:40:12;;;;;;;2.87;1.13;;;10.80;1.00;;;;;;5073597;28;20219;-85
2022/04/21 06:42:38;;;;;;;4.27;1.60;;;12.20;1.00;;;;;;5073575;28;20982;-83
2022/04/21 06:48:04;;;;;;;2.43;0.67;;;15.70;99.90;;;;;;5073732;28;20405;-83
2022/04/21 06:50:33;;;;;;;1.33;0.83;;;16.30;81.50;;;;;;5072956;28;20412;-84
2022/04/21 06:53:00;;;;;;;2.73;1.87;;;16.70;44.90;;;;;;5073691;28;20458;-83
2022/04/21 06:55:26;;;;;;;2.03;1.00;;;16.80;21.60;;;;;;5073059;28;20426;-83
2022/04/21 06:57:51;;;;;;;5.20;1.63;;;17.30;9.70;;;;;;5073279;28;20416;-83
2022/04/21 07:00:17;;;;;;;2.50;0.93;;;17.00;2.70;;;;;;5073208;28;20471;-83
2022/04/21 07:02:42;;;;;;;2.03;0.60;;;16.60;1.00;;;;;;5073305;28;20541;-85
2022/04/21 07:05:11;;;;;;;1.53;1.00;;;16.50;1.00;;;;;;5072797;28;20664;-85
2022/04/21 07:07:39;;;;;;;5.60;1.20;;;15.80;1.00;;;;;;5073138;28;20623;-84
2022/04/21 07:10:05;;;;;;;2.80;1.40;;;17.10;1.00;;;;;;5073031;28;20414;-85
2022/04/21 07:12:31;;;;;;;4.60;1.47;;;17.40;1.00;;;;;;5073043;28;20422;-85
2022/04/21 07:15:02;;;;;;;1.50;0.63;;;16.00;1.00;;;;;;5073125;28;20475;-84
2022/04/21 07:17:28;;;;;;;2.57;1.63;;;14.90;1.00;;;;;;5072995;28;20418;-84
2022/04/21 07:19:53;;;;;;;3.33;1.50;;;15.50;1.00;;;;;;5072568;28;20473;-85
2022/04/21 07:22:25;;;;;;;2.40;1.50;;;17.10;1.00;;;;;;5072977;28;20179;-83
2022/04/21 07:24:57;;;;;;;1.77;0.70;;;16.40;1.00;;;;;;5073090;28;20643;-84
2022/04/21 07:27:23;;;;;;;2.80;1.20;;;15.80;1.00;;;;;;5072538;28;20469;-84
2022/04/21 07:29:50;;;;;;;2.97;1.37;;;16.10;1.00;;;;;;5072850;28;20425;-85
2022/04/21 07:32:17;;;;;;;7.30;1.63;;;19.10;2.50;;;;;;5072849;28;20915;-85
2022/04/21 07:34:43;;;;;;;1.30;0.40;;;19.90;1.00;;;;;;5072468;28;20420;-86
2022/04/21 07:37:09;;;;;;;1.13;0.47;;;19.00;1.00;;;;;;5072811;28;20970;-86
2022/04/21 07:39:35;;;;;;;1.77;0.90;;;16.80;1.00;;;;;;5072723;28;20236;-84
2022/04/21 07:42:01;;;;;;;1.77;1.10;;;17.70;1.00;;;;;;5072817;28;20495;-84
2022/04/21 07:44:27;;;;;;;1.63;0.87;;;16.80;1.00;;;;;;5054523;28;20889;-84
2022/04/21 07:46:54;;;;;;;2.83;1.40;;;15.70;1.00;;;;;;5072632;28;20531;-83
2022/04/21 07:54:48;;;;;;;2.53;0.73;;;18.20;1.00;;;;;;5072787;28;20437;-84
2022/04/21 07:57:14;;;;;;;2.10;0.90;;;19.10;1.00;;;;;;5072547;28;20412;-83
2022/04/21 07:59:39;;;;;;;2.83;0.87;;;19.20;1.00;;;;;;5072443;28;20246;-84
2022/04/21 08:02:08;;;;;;;1.73;0.80;;;20.10;1.00;;;;;;5072538;28;20182;-84
2022/04/21 08:04:34;;;;;;;2.30;1.33;;;20.80;1.00;;;;;;5072216;28;20191;-86
2022/04/21 08:07:00;;;;;;;2.43;1.13;;;20.90;1.00;;;;;;5072547;28;20903;-86
2022/04/21 08:09:25;;;;;;;1.73;1.60;;;20.10;1.00;;;;;;5072546;28;20791;-85
2022/04/21 08:11:51;;;;;;;4.03;1.23;;;18.20;1.00;;;;;;5072427;28;20511;-86
2022/04/21 08:14:17;;;;;;;1.43;0.90;;;17.20;1.00;;;;;;5072397;28;20175;-85
2022/04/21 08:16:43;;;;;;;3.70;0.87;;;16.20;1.00;;;;;;5072499;28;20341;-84
2022/04/21 08:19:10;;;;;;;1.70;0.83;;;17.40;1.00;;;;;;5072126;28;20414;-85
2022/04/21 08:21:37;;;;;;;3.03;0.93;;;18.20;1.00;;;;;;5072336;28;20472;-84
2022/04/21 08:32:33;;;;;;;1.83;0.80;;;21.60;1.00;;;;;;5072338;28;20418;-85
2022/04/21 08:35:00;;;;;;;1.93;1.30;;;21.20;1.00;;;;;;5072061;28;20423;-85
2022/04/21 08:37:25;;;;;;;1.40;0.77;;;20.30;1.00;;;;;;5072111;28;20415;-86
2022/04/21 08:39:51;;;;;;;4.07;1.10;;;21.20;1.00;;;;;;5054251;28;20986;-85
2022/04/21 08:42:18;;;;;;;1.30;1.20;;;20.10;1.00;;;;;;5072134;28;20244;-84
2022/04/21 08:44:44;;;;;;;1.57;0.67;;;20.00;1.00;;;;;;5074534;28;20169;-84
2022/04/21 08:47:14;;;;;;;1.00;0.60;;;21.30;1.00;;;;;;5075879;28;20502;-84
2022/04/21 08:49:42;;;;;;;2.10;0.70;;;20.30;1.00;;;;;;5075459;28;20411;-84
2022/04/21 08:52:08;;;;;;;4.57;1.13;;;19.40;1.00;;;;;;5075436;28;20506;-85
2022/04/21 08:54:34;;;;;;;3.37;0.70;;;20.20;1.00;;;;;;5075622;28;20741;-86
2022/04/21 08:56:59;;;;;;;2.10;1.13;;;21.20;1.00;;;;;;5075753;28;20509;-85
2022/04/21 08:59:25;;;;;;;3.67;1.10;;;20.70;1.00;;;;;;5075411;28;20647;-85
2022/04/21 09:01:51;;;;;;;2.30;1.13;;;20.90;1.00;;;;;;5075494;28;20173;-86
2022/04/21 09:04:16;;;;;;;1.50;0.57;;;21.10;1.00;;;;;;5075231;28;20187;-85
2022/04/21 09:06:42;;;;;;;2.60;1.13;;;20.50;1.00;;;;;;5075522;28;20196;-84
2022/04/21 09:09:16;;;;;;;2.30;0.70;;;21.10;1.00;;;;;;5075292;28;20569;-85
2022/04/21 09:11:45;;;;;;;2.17;1.30;;;21.40;1.00;;;;;;5075320;28;20161;-85
2022/04/21 09:14:15;;;;;;;1.83;1.03;;;21.50;1.00;;;;;;5075360;28;20943;-85
2022/04/21 09:16:41;;;;;;;1.17;0.77;;;20.80;1.00;;;;;;5075415;28;20762;-86
2022/04/21 09:19:06;;;;;;;1.57;1.23;;;20.30;1.00;;;;;;5074879;28;20411;-85
2022/04/21 09:21:37;;;;;;;1.57;0.87;;;22.30;1.00;;;;;;5075034;28;20677;-85
2022/04/21 09:24:24;;;;;;;2.20;0.73;;;21.40;1.00;;;;;;5075230;28;20266;-85
2022/04/21 09:26:51;;;;;;;1.20;0.70;;;21.50;1.00;;;;;;5075005;28;20512;-85
2022/04/21 09:29:24;;;;;;;2.77;1.17;;;22.30;1.00;;;;;;5075062;28;20427;-85
2022/04/21 09:31:57;;;;;;;1.83;1.10;;;22.40;1.00;;;;;;5057057;28;20424;-85
2022/04/21 09:34:23;;;;;;;1.43;0.70;;;21.50;1.00;;;;;;5074626;28;20419;-86
2022/04/21 09:36:49;;;;;;;2.30;1.40;;;22.40;1.00;;;;;;5075088;28;20419;-86
2022/04/21 09:39:15;;;;;;;1.27;0.73;;;22.20;1.00;;;;;;5074829;28;20761;-86
2022/04/21 09:41:44;;;;;;;2.37;1.00;;;23.40;1.00;;;;;;5056808;28;20214;-86
2022/04/21 09:46:58;;;;;;;2.13;1.30;;;22.20;1.00;;;;;;5074887;28;20395;-85
2022/04/21 09:49:43;;;;;;;1.70;1.30;;;22.20;1.00;;;;;;5074439;28;20415;-84
2022/04/21 09:52:09;;;;;;;2.50;1.20;;;19.80;1.00;;;;;;5074756;28;20415;-85
2022/04/21 09:54:35;;;;;;;2.40;1.20;;;18.70;1.00;;;;;;5074168;28;20403;-85
2022/04/21 09:57:01;;;;;;;4.57;1.60;;;18.60;1.00;;;;;;5073706;28;20783;-84
2022/04/21 09:59:27;;;;;;;1.83;0.93;;;19.00;1.00;;;;;;5074393;28;20422;-85
2022/04/21 10:01:54;;;;;;;1.57;1.30;;;18.40;1.00;;;;;;5074395;28;20505;-85
2022/04/21 10:04:20;;;;;;;2.17;1.13;;;18.70;1.00;;;;;;5074129;28;20427;-85
2022/04/21 10:06:47;;;;;;;5.10;0.97;;;19.00;1.00;;;;;;5056287;28;20443;-84
2022/04/21 10:09:16;;;;;;;2.10;0.90;;;19.20;1.00;;;;;;5074280;28;20202;-85
2022/04/21 10:11:42;;;;;;;1.93;1.03;;;18.80;1.00;;;;;;5074159;28;20504;-84
2022/04/21 10:14:13;;;;;;;2.90;0.97;;;18.90;1.00;;;;;;5074130;28;20410;-85
2022/04/21 10:16:42;;;;;;;1.60;1.03;;;18.10;1.00;;;;;;5074585;28;20417;-85
2022/04/21 10:19:09;;;;;;;2.10;1.00;;;17.90;1.00;;;;;;5074163;28;20748;-85
2022/04/21 10:21:39;;;;;;;1.90;0.87;;;18.20;1.00;;;;;;5074386;28;20560;-86
2022/04/21 10:24:06;;;;;;;1.10;0.57;;;18.60;1.00;;;;;;5074378;28;20442;-86
2022/04/21 10:26:40;;;;;;;3.07;1.30;;;18.40;1.00;;;;;;5074133;28;20781;-83
2022/04/21 10:29:13;;;;;;;1.27;0.60;;;18.00;1.00;;;;;;5074525;28;20810;-85
2022/04/21 10:32:03;;;;;;;3.47;1.10;;;17.50;1.00;;;;;;5074355;28;20785;-84
2022/04/21 10:34:38;;;;;;;2.40;1.37;;;17.20;1.00;;;;;;5055977;28;20905;-84
2022/04/21 10:37:10;;;;;;;1.13;0.70;;;16.90;1.00;;;;;;5074440;28;20774;-84
2022/04/21 10:39:37;;;;;;;2.57;1.20;;;16.60;1.00;;;;;;5074377;28;20411;-83
2022/04/21 10:42:18;;;;;;;3.00;1.00;;;16.70;1.00;;;;;;5074954;28;20543;-83
2022/04/21 10:44:49;;;;;;;4.20;1.17;;;16.90;1.00;;;;;;5074686;28;20477;-83
2022/04/21 10:47:35;;;;;;;1.30;0.30;;;16.70;1.00;;;;;;5074893;28;21009;-83
2022/04/21 10:50:19;;;;;;;4.33;1.47;;;16.40;1.00;;;;;;5056197;28;20414;-83
2022/04/21 10:58:34;;;;;;;2.73;0.83;;;15.70;1.00;;;;;;5074527;28;20924;-84
2022/04/21 11:01:07;;;;;;;2.93;1.33;;;15.70;1.00;;;;;;5074230;28;20495;-83
2022/04/21 11:03:33;;;;;;;0.83;0.37;;;15.70;1.00;;;;;;5073140;28;20413;-84
2022/04/21 11:06:10;;;;;;;2.80;0.60;;;15.20;1.00;;;;;;5072777;28;20425;-83
2022/04/21 11:08:36;;;;;;;1.70;0.90;;;15.70;1.00;;;;;;5072590;28;20276;-84
2022/04/21 11:11:03;;;;;;;1.90;0.80;;;15.70;1.00;;;;;;5055171;28;20913;-83
2022/04/21 11:13:47;;;;;;;2.80;0.83;;;15.30;1.00;;;;;;5072938;28;20421;-83
2022/04/21 11:16:41;;;;;;;1.10;1.00;;;15.30;1.00;;;;;;5072818;28;20740;-84
2022/04/21 11:19:28;;;;;;;1.77;0.90;;;15.30;1.00;;;;;;5072591;28;20414;-83
2022/04/21 11:21:58;;;;;;;2.23;2.03;;;15.50;1.00;;;;;;5055045;28;20988;-86
2022/04/21 11:24:25;;;;;;;1.30;0.63;;;15.40;1.00;;;;;;5055050;28;20493;-85
2022/04/21 11:27:00;;;;;;;2.17;0.87;;;15.40;1.00;;;;;;5072905;28;20451;-84
2022/04/21 11:29:26;;;;;;;1.73;0.87;;;15.70;1.00;;;;;;5072756;28;20979;-85
2022/04/21 11:31:57;;;;;;;5.90;0.80;;;15.50;1.00;;;;;;5054911;28;20451;-84
2022/04/21 11:34:24;;;;;;;3.87;1.40;;;15.50;1.00;;;;;;5072504;28;20449;-84
2022/04/21 11:36:53;;;;;;;2.43;0.93;;;15.70;1.00;;;;;;5072891;28;20418;-85
2022/04/21 11:39:18;;;;;;;5.80;1.50;;;15.70;1.00;;;;;;5072781;28;20909;-86
2022/04/21 11:41:44;;;;;;;2.53;0.60;;;15.60;1.00;;;;;;5072814;28;20464;-84
2022/04/21 11:44:11;;;;;;;4.57;0.80;;;15.40;1.00;;;;;;5072871;28;20639;-86
2022/04/21 11:46:39;;;;;;;3.00;1.23;;;15.70;1.00;;;;;;5072945;28;20417;-84
2022/04/21 11:49:04;;;;;;;1.90;0.57;;;16.00;1.00;;;;;;5071153;28;20425;-84
2022/04/21 11:51:30;;;;;;;3.00;0.60;;;15.70;1.00;;;;;;5072477;28;20758;-84
2022/04/21 11:54:06;;;;;;;2.83;1.80;;;15.70;1.00;;;;;;5072510;28;20529;-84
2022/04/21 11:56:32;;;;;;;2.17;1.03;;;15.70;1.00;;;;;;5054563;28;20425;-83
2022/04/21 11:59:07;;;;;;;2.17;0.80;;;15.40;1.00;;;;;;5072418;28;20773;-85
2022/04/21 12:07:05;;;;;;;2.20;1.10;;;15.40;1.00;;;;;;5071666;28;20452;-92
2022/04/21 12:09:38;;;;;;;2.90;1.40;;;15.80;1.00;;;;;;5059378;28;20512;-93
2022/04/21 12:12:08;;;;;;;1.90;0.90;;;16.40;1.00;;;;;;5057101;28;20266;-93
2022/04/21 12:14:35;;;;;;;3.53;0.90;;;16.90;1.00;;;;;;5053946;28;20465;-91
2022/04/21 12:17:06;;;;;;;1.80;0.60;;;17.20;1.00;;;;;;5074020;28;20452;-88
2022/04/21 12:19:39;;;;;;;3.23;1.03;;;16.60;1.00;;;;;;5076709;28;20405;-91
2022/04/21 12:22:09;;;;;;;2.43;1.10;;;16.80;1.00;;;;;;5058776;28;20426;-91
2022/04/21 12:24:44;;;;;;;4.20;1.70;;;16.60;1.00;;;;;;5077227;28;20414;-92
2022/04/21 12:27:24;;;;;;;1.90;0.80;;;16.30;1.00;;;;;;5076963;28;20462;-92
2022/04/21 12:30:00;;;;;;;2.97;1.40;;;16.60;1.00;;;;;;5058762;28;20469;-94
2022/04/21 12:32:28;;;;;;;4.57;1.60;;;16.80;1.00;;;;;;5057498;28;20426;-92
2022/04/21 12:34:55;;;;;;;2.43;1.20;;;16.10;1.00;;;;;;5060126;28;21031;-94
2022/04/21 12:37:29;;;;;;;9.77;1.97;;;16.40;1.00;;;;;;5060338;28;20416;-93
2022/04/21 12:39:56;;;;;;;3.13;1.23;;;16.00;1.00;;;;;;5059074;28;20539;-92
2022/04/21 12:42:23;;;;;;;4.20;1.67;;;16.20;1.00;;;;;;5059896;28;20495;-94
2022/04/21 12:44:50;;;;;;;2.60;1.10;;;16.30;1.00;;;;;;5060348;28;20417;-93
2022/04/21 12:47:20;;;;;;;3.00;1.40;;;16.30;1.00;;;;;;5059470;28;20468;-95
2022/04/21 12:49:50;;;;;;;2.60;1.07;;;16.40;1.00;;;;;;5076852;28;20399;-90
2022/04/21 12:52:35;;;;;;;2.63;1.27;;;16.70;1.00;;;;;;5076865;28;20437;-92
2022/04/21 12:55:06;;;;;;;4.97;2.50;;;16.70;1.00;;;;;;5058838;28;20419;-92
2022/04/21 12:57:32;;;;;;;4.43;1.77;;;16.80;1.00;;;;;;5077508;28;20448;-94
2022/04/21 12:59:58;;;;;;;2.03;1.03;;;16.40;1.00;;;;;;5059117;28;20472;-95
2022/04/21 13:02:26;;;;;;;3.30;1.77;;;16.50;1.00;;;;;;5076769;28;20420;-93
2022/04/21 13:04:52;;;;;;;4.27;1.77;;;16.50;1.00;;;;;;5058060;28;20422;-90
2022/04/21 13:07:20;;;;;;;5.33;1.57;;;16.00;1.00;;;;;;5059253;28;20999;-90
2022/04/21 13:09:52;;;;;;;3.63;1.47;;;16.30;1.00;;;;;;5061584;28;20183;-90
2022/04/21 13:12:17;;;;;;;4.03;1.27;;;16.10;1.00;;;;;;5076684;28;20455;-90
2022/04/21 13:14:43;;;;;;;5.23;1.90;;;15.70;1.00;;;;;;5058203;28;20420;-90
2022/04/21 13:17:15;;;;;;;2.53;1.57;;;15.80;1.00;;;;;;5076386;28;20626;-95
2022/04/21 13:19:40;;;;;;;3.97;1.87;;;15.70;1.00;;;;;;5059493;28;20571;-92
2022/04/21 13:22:06;;;;;;;3.20;1.10;;;15.90;1.00;;;;;;5059434;28;20429;-95
2022/04/21 13:24:32;;;;;;;2.23;1.77;;;15.70;1.00;;;;;;5059269;28;20177;-95
2022/04/21 13:26:59;;;;;;;3.43;2.20;;;16.10;1.00;;;;;;5059026;28;20243;-93
2022/04/21 13:29:27;;;;;;;5.97;2.90;;;16.10;1.00;;;;;;5060690;28;20501;-96
2022/04/21 13:34:37;;;;;;;5.03;2.00;;;16.00;1.00;;;;;;5057826;28;20436;-92
2022/04/21 13:37:04;;;;;;;4.83;1.97;;;15.90;1.00;;;;;;5038537;28;20405;-93
2022/04/21 13:39:31;;;;;;;5.00;1.93;;;15.80;1.00;;;;;;5056579;28;20408;-93
2022/04/21 13:41:57;;;;;;;5.00;1.93;;;15.80;1.00;;;;;;5056564;28;20465;-92
2022/04/21 13:44:23;;;;;;;4.10;2.27;;;15.70;1.00;;;;;;5053174;28;20497;-90
2022/04/21 13:46:49;;;;;;;2.97;1.27;;;15.70;1.00;;;;;;5074624;28;20425;-87
2022/04/21 13:49:15;;;;;;;3.67;1.60;;;16.00;1.00;;;;;;5074164;28;20169;-88
2022/04/21 13:51:40;;;;;;;4.70;2.07;;;16.00;1.00;;;;;;5056373;28;20231;-83
2022/04/21 13:54:07;;;;;;;3.43;1.50;;;16.00;1.00;;;;;;5056619;28;20426;-83
2022/04/21 13:56:36;;;;;;;2.13;1.20;;;16.10;1.00;;;;;;5074489;28;20730;-83
2022/04/21 13:59:02;;;;;;;3.47;1.40;;;16.30;1.00;;;;;;5073955;28;20414;-82
2022/04/21 14:01:28;;;;;;;4.83;2.67;;;16.10;1.00;;;;;;5074203;28;20530;-83